Time;durP1;ratioP1;P1;durP2;ratioP2;P2;SDS_P1;SDS_P2;PMS_P1;PMS_P2;Temp;Humidity;BMP_temperature;BMP_pressure;BME280_temperature;BME280_humidity;BME280_pressure;Samples;Min_cycle;Max_cycle;Signal;HPM_P1;HPM_P2
2024/02/27 00:02:18;;;;;;;9.13;6.63;;;7.40;98.60;;;;;;6271626;22;20008;-77
2024/02/27 00:05:04;;;;;;;9.50;6.35;;;7.30;98.50;;;;;;6271353;22;20007;-77
2024/02/27 00:07:50;;;;;;;8.43;6.03;;;7.30;98.60;;;;;;6270323;22;20074;-77
2024/02/27 00:10:36;;;;;;;6.97;5.60;;;7.30;98.60;;;;;;6271344;22;20439;-76
2024/02/27 00:13:22;;;;;;;7.78;5.20;;;7.30;98.70;;;;;;6268887;22;20004;-76
2024/02/27 00:16:08;;;;;;;7.20;5.40;;;7.30;98.70;;;;;;6270427;22;20019;-77
2024/02/27 00:18:54;;;;;;;10.10;6.47;;;7.30;98.70;;;;;;6273030;22;20007;-76
2024/02/27 00:21:40;;;;;;;7.63;5.43;;;7.30;98.70;;;;;;6270643;22;20015;-76
2024/02/27 00:24:26;;;;;;;6.47;5.45;;;7.30;98.70;;;;;;6271273;22;20007;-74
2024/02/27 00:27:12;;;;;;;9.55;5.60;;;7.20;98.70;;;;;;6270258;22;20019;-74
2024/02/27 00:29:58;;;;;;;9.80;5.97;;;7.20;98.70;;;;;;6270289;22;20266;-74
2024/02/27 00:32:44;;;;;;;6.35;4.63;;;7.20;98.80;;;;;;6271243;22;20012;-74
2024/02/27 00:35:33;;;;;;;9.25;5.50;;;7.20;98.80;;;;;;6272823;22;20006;-76
2024/02/27 00:38:19;;;;;;;9.02;4.90;;;7.20;98.80;;;;;;6270715;22;20526;-77
2024/02/27 00:41:06;;;;;;;7.57;5.13;;;7.20;98.80;;;;;;6271046;22;20402;-76
2024/02/27 00:43:52;;;;;;;7.20;5.30;;;7.20;98.80;;;;;;6271748;22;20012;-72
2024/02/27 00:46:38;;;;;;;8.05;5.07;;;7.20;98.80;;;;;;6270568;22;20019;-72
2024/02/27 00:49:24;;;;;;;8.07;5.07;;;7.20;98.80;;;;;;6247111;22;20437;-72
2024/02/27 00:52:10;;;;;;;6.00;4.72;;;7.20;98.80;;;;;;6271410;22;20011;-73
2024/02/27 00:54:56;;;;;;;7.90;4.97;;;7.10;98.80;;;;;;6270459;22;20011;-72
2024/02/27 00:57:43;;;;;;;9.13;5.18;;;7.10;98.90;;;;;;6270044;22;20314;-72
2024/02/27 01:00:29;;;;;;;8.48;5.25;;;7.10;98.90;;;;;;6272075;22;20452;-72
2024/02/27 01:03:15;;;;;;;9.50;6.38;;;7.00;98.90;;;;;;6271290;22;20020;-71
2024/02/27 01:06:01;;;;;;;7.78;5.53;;;7.00;98.90;;;;;;6271104;22;20449;-72
2024/02/27 01:08:47;;;;;;;7.82;5.32;;;7.10;98.90;;;;;;6248790;22;20452;-73
2024/02/27 01:11:32;;;;;;;8.23;5.50;;;7.00;98.90;;;;;;6278135;22;20527;-71
2024/02/27 01:14:18;;;;;;;8.80;5.60;;;7.00;99.00;;;;;;6281787;22;20464;-72
2024/02/27 01:17:05;;;;;;;10.55;6.55;;;7.00;99.20;;;;;;6278011;22;20012;-71
2024/02/27 01:19:52;;;;;;;9.02;5.75;;;7.00;99.00;;;;;;6254481;22;20441;-71
2024/02/27 01:22:38;;;;;;;8.73;6.03;;;7.00;99.00;;;;;;6284280;22;20011;-72
2024/02/27 01:25:24;;;;;;;9.48;5.65;;;7.00;99.10;;;;;;6285609;22;20007;-71
2024/02/27 01:28:09;;;;;;;8.15;5.13;;;6.90;99.10;;;;;;6276951;22;20019;-71
2024/02/27 01:30:55;;;;;;;7.93;5.57;;;7.00;99.10;;;;;;6271245;22;20018;-71
2024/02/27 01:33:42;;;;;;;7.93;5.45;;;7.00;99.10;;;;;;6270986;22;20015;-72
2024/02/27 01:36:28;;;;;;;7.63;5.63;;;7.00;99.00;;;;;;6273676;22;20087;-70
2024/02/27 01:39:13;;;;;;;7.20;5.55;;;7.00;99.00;;;;;;6272149;22;20008;-71
2024/02/27 01:41:59;;;;;;;8.50;5.43;;;7.00;99.00;;;;;;6271779;22;20004;-72
2024/02/27 01:44:51;;;;;;;9.15;5.82;;;7.00;99.00;;;;;;6269953;22;20507;-72
2024/02/27 01:47:37;;;;;;;8.48;5.57;;;7.00;99.10;;;;;;6271896;22;20078;-71
2024/02/27 01:50:23;;;;;;;6.47;4.57;;;7.00;99.10;;;;;;6272515;22;20007;-71
2024/02/27 01:53:09;;;;;;;6.75;5.03;;;7.00;99.10;;;;;;6250954;22;20012;-71
2024/02/27 01:55:56;;;;;;;7.85;5.28;;;7.00;99.10;;;;;;6271730;22;20046;-71
2024/02/27 01:58:44;;;;;;;8.57;5.68;;;7.00;99.10;;;;;;6272723;22;20429;-71
2024/02/27 02:01:30;;;;;;;7.22;5.00;;;7.00;99.10;;;;;;6280774;22;20141;-71
2024/02/27 02:04:17;;;;;;;7.18;5.45;;;7.10;99.10;;;;;;6280103;22;20015;-70
2024/02/27 02:07:03;;;;;;;9.88;4.68;;;7.10;99.10;;;;;;6273947;22;20432;-71
2024/02/27 02:09:49;;;;;;;8.48;5.30;;;7.10;99.10;;;;;;6272674;22;20395;-71
2024/02/27 02:12:35;;;;;;;6.85;4.82;;;7.10;99.10;;;;;;6272069;22;20073;-71
2024/02/27 02:15:21;;;;;;;8.32;5.28;;;7.10;99.20;;;;;;6269300;22;20020;-71
2024/02/27 02:18:07;;;;;;;6.82;5.57;;;7.10;99.10;;;;;;6249798;22;20018;-71
2024/02/27 02:20:53;;;;;;;7.75;5.20;;;7.10;99.10;;;;;;6272446;22;20011;-71
2024/02/27 02:23:39;;;;;;;6.60;4.68;;;7.10;99.00;;;;;;6249907;22;20043;-71
2024/02/27 02:26:27;;;;;;;7.18;5.28;;;7.10;99.00;;;;;;6247787;22;20031;-71
2024/02/27 02:29:13;;;;;;;7.22;5.13;;;7.10;99.00;;;;;;6273280;22;20344;-70
2024/02/27 02:31:59;;;;;;;6.65;5.57;;;7.10;99.00;;;;;;6269807;22;20008;-70
2024/02/27 02:34:45;;;;;;;9.45;5.60;;;7.10;99.10;;;;;;6269393;22;20019;-71
2024/02/27 02:37:31;;;;;;;7.05;4.55;;;7.00;99.10;;;;;;6272235;22;20015;-71
2024/02/27 02:40:19;;;;;;;7.65;5.97;;;7.00;99.10;;;;;;6272500;22;20011;-71
2024/02/27 02:43:05;;;;;;;7.20;5.00;;;7.00;99.30;;;;;;6271685;22;20448;-71
2024/02/27 02:45:51;;;;;;;7.30;5.28;;;7.00;99.20;;;;;;6270635;22;20317;-71
2024/02/27 02:48:38;;;;;;;7.43;5.05;;;7.00;99.20;;;;;;6272352;22;20011;-70
2024/02/27 02:51:24;;;;;;;6.03;4.65;;;7.00;99.20;;;;;;6271117;22;20007;-71
2024/02/27 02:54:10;;;;;;;8.25;4.70;;;7.00;99.20;;;;;;6270903;22;20039;-72
2024/02/27 02:56:56;;;;;;;7.30;5.20;;;7.00;99.30;;;;;;6271789;22;20018;-65
2024/02/27 02:59:43;;;;;;;8.55;5.20;;;7.00;99.30;;;;;;6271776;22;20058;-66
2024/02/27 03:02:30;;;;;;;5.90;4.43;;;7.00;99.20;;;;;;6249174;22;20440;-65
2024/02/27 03:05:16;;;;;;;8.40;5.10;;;7.00;99.20;;;;;;6272110;22;20039;-65
2024/02/27 03:08:03;;;;;;;6.05;4.72;;;7.00;99.20;;;;;;6271213;22;20053;-65
2024/02/27 03:10:49;;;;;;;7.75;4.38;;;7.00;99.30;;;;;;6272379;22;20082;-65
2024/02/27 03:13:35;;;;;;;7.30;4.80;;;7.00;99.30;;;;;;6272362;22;20028;-65
2024/02/27 03:16:21;;;;;;;5.82;4.75;;;7.00;99.20;;;;;;6270531;22;20015;-65
2024/02/27 03:19:07;;;;;;;8.77;5.78;;;7.00;99.20;;;;;;6271514;22;20040;-65
2024/02/27 03:21:56;;;;;;;6.82;4.93;;;7.00;99.10;;;;;;6272114;22;20090;-65
2024/02/27 03:24:45;;;;;;;8.05;4.93;;;7.00;99.10;;;;;;6272495;22;20014;-73
2024/02/27 03:27:33;;;;;;;7.18;4.95;;;7.00;99.10;;;;;;6271159;22;20100;-72
2024/02/27 03:30:19;;;;;;;7.45;5.15;;;7.00;99.20;;;;;;6270694;22;20038;-72
2024/02/27 03:33:05;;;;;;;6.80;5.00;;;7.00;99.20;;;;;;6269359;22;20022;-72
2024/02/27 03:35:51;;;;;;;6.65;5.05;;;7.00;99.20;;;;;;6270987;22;20008;-72
2024/02/27 03:38:37;;;;;;;7.80;5.15;;;7.00;99.20;;;;;;6270578;22;20014;-72
2024/02/27 03:41:23;;;;;;;8.52;5.55;;;6.90;99.20;;;;;;6270792;22;20011;-72
2024/02/27 03:44:09;;;;;;;7.72;4.72;;;6.90;99.20;;;;;;6270743;22;20011;-71
2024/02/27 03:46:55;;;;;;;6.90;4.60;;;6.90;99.20;;;;;;6270195;22;20024;-72
2024/02/27 03:49:41;;;;;;;6.13;4.43;;;6.90;99.20;;;;;;6269942;22;20511;-72
2024/02/27 03:52:27;;;;;;;7.35;5.40;;;6.90;99.20;;;;;;6269447;22;20018;-72
2024/02/27 03:55:13;;;;;;;8.35;5.05;;;6.90;99.20;;;;;;6271676;22;20057;-71
2024/02/27 03:57:59;;;;;;;6.40;5.25;;;6.90;99.30;;;;;;6271576;22;20011;-71
2024/02/27 04:00:45;;;;;;;7.45;5.53;;;6.80;99.20;;;;;;6270070;22;20389;-72
2024/02/27 04:03:31;;;;;;;8.75;5.30;;;6.80;99.20;;;;;;6271765;22;20019;-71
2024/02/27 04:06:17;;;;;;;7.47;5.55;;;6.80;99.20;;;;;;6270766;22;20022;-73
2024/02/27 04:09:04;;;;;;;6.50;5.07;;;6.70;99.20;;;;;;6271267;22;20436;-70
2024/02/27 04:11:49;;;;;;;8.00;5.57;;;6.70;99.20;;;;;;6270861;22;20016;-71
2024/02/27 04:14:35;;;;;;;9.20;5.05;;;6.70;99.30;;;;;;6270547;22;20031;-71
2024/02/27 04:17:21;;;;;;;6.80;5.28;;;6.70;99.30;;;;;;6269465;22;20012;-71
2024/02/27 04:20:08;;;;;;;8.25;5.68;;;6.60;99.40;;;;;;6270762;22;20011;-71
2024/02/27 04:22:54;;;;;;;10.32;5.97;;;6.60;99.40;;;;;;6272250;22;20344;-71
2024/02/27 04:25:40;;;;;;;8.38;6.00;;;6.60;99.50;;;;;;6270905;22;20038;-71
2024/02/27 04:28:26;;;;;;;9.52;5.88;;;6.60;99.60;;;;;;6271507;22;20474;-71
2024/02/27 04:31:12;;;;;;;7.25;5.80;;;6.50;99.60;;;;;;6248586;22;20058;-72
2024/02/27 04:33:58;;;;;;;7.28;5.57;;;6.50;99.70;;;;;;6268762;22;20335;-70
2024/02/27 04:36:48;;;;;;;10.82;7.97;;;6.50;99.70;;;;;;6271161;22;20065;-72
2024/02/27 04:39:34;;;;;;;11.43;7.18;;;6.50;99.90;;;;;;6271326;22;20042;-71
2024/02/27 04:42:20;;;;;;;9.50;6.38;;;6.50;99.90;;;;;;6269736;22;20007;-71
2024/02/27 04:45:06;;;;;;;9.15;6.22;;;6.50;99.90;;;;;;6271342;22;20016;-71
2024/02/27 04:47:52;;;;;;;10.05;6.70;;;6.50;99.90;;;;;;6271220;22;20020;-73
2024/02/27 04:50:38;;;;;;;9.57;7.30;;;6.50;99.90;;;;;;6271214;22;20008;-72
2024/02/27 04:53:24;;;;;;;9.38;5.72;;;6.50;99.90;;;;;;6269787;22;20039;-72
2024/02/27 04:56:10;;;;;;;8.85;6.38;;;6.50;99.90;;;;;;6271441;22;20012;-71
2024/02/27 04:58:56;;;;;;;11.07;7.15;;;6.50;99.90;;;;;;6269532;22;20427;-72
2024/02/27 05:01:47;;;;;;;8.18;6.30;;;6.40;99.90;;;;;;6270225;22;20090;-73
2024/02/27 05:04:33;;;;;;;9.00;5.95;;;6.50;99.90;;;;;;6269987;22;20314;-70
2024/02/27 05:07:19;;;;;;;10.57;6.55;;;6.40;99.90;;;;;;6270497;22;20019;-71
2024/02/27 05:10:05;;;;;;;8.18;6.68;;;6.40;99.90;;;;;;6272757;22;20411;-71
2024/02/27 05:12:51;;;;;;;7.90;5.88;;;6.40;99.90;;;;;;6271760;22;20012;-71
2024/02/27 05:15:37;;;;;;;11.45;6.97;;;6.30;99.90;;;;;;6275216;22;20024;-71
2024/02/27 05:18:23;;;;;;;8.77;6.05;;;6.30;99.90;;;;;;6280580;22;20034;-69
2024/02/27 05:21:09;;;;;;;9.48;6.95;;;6.30;99.90;;;;;;6278862;22;20444;-70
2024/02/27 05:23:55;;;;;;;8.63;5.93;;;6.20;99.90;;;;;;6276943;22;20468;-71
2024/02/27 05:26:41;;;;;;;9.27;6.05;;;6.20;99.90;;;;;;6275009;22;20038;-72
2024/02/27 05:29:27;;;;;;;11.80;6.47;;;6.20;99.90;;;;;;6275761;22;20015;-72
2024/02/27 05:32:13;;;;;;;8.95;6.28;;;6.30;99.90;;;;;;6273187;22;20008;-64
2024/02/27 05:34:59;;;;;;;8.40;6.05;;;6.20;99.90;;;;;;6270061;22;20004;-64
2024/02/27 05:37:45;;;;;;;10.20;7.15;;;6.20;99.90;;;;;;6273215;22;20011;-66
2024/02/27 05:40:31;;;;;;;9.63;6.20;;;6.10;99.90;;;;;;6272118;22;20011;-66
2024/02/27 05:43:17;;;;;;;7.93;5.95;;;6.10;99.90;;;;;;6272124;22;20008;-66
2024/02/27 05:46:05;;;;;;;10.10;6.00;;;6.10;99.90;;;;;;6272394;22;20051;-66
2024/02/27 05:48:51;;;;;;;10.93;7.00;;;6.10;99.90;;;;;;6271822;22;20004;-66
2024/02/27 05:51:40;;;;;;;9.52;7.43;;;6.10;99.90;;;;;;6249312;22;20050;-66
2024/02/27 05:54:26;;;;;;;11.35;7.40;;;6.10;99.90;;;;;;6271823;22;20014;-67
2024/02/27 05:57:13;;;;;;;13.65;7.13;;;6.10;99.90;;;;;;6272619;22;20432;-67
2024/02/27 05:59:59;;;;;;;11.80;7.57;;;6.10;99.90;;;;;;6271164;22;20003;-67
2024/02/27 06:02:45;;;;;;;11.00;7.18;;;6.10;99.90;;;;;;6272487;22;20016;-66
2024/02/27 06:05:31;;;;;;;12.32;8.10;;;6.00;99.90;;;;;;6271497;22;20003;-67
2024/02/27 06:08:17;;;;;;;13.68;8.00;;;6.00;99.90;;;;;;6272361;22;20015;-66
2024/02/27 06:11:03;;;;;;;11.93;8.15;;;6.00;99.90;;;;;;6273040;22;20016;-68
2024/02/27 16:53:07;;;;;;;22.73;12.27;;;7.90;99.90;;;;;;6229062;22;20490;-59
2024/02/27 16:55:53;;;;;;;24.55;12.68;;;7.90;99.90;;;;;;6269812;22;20012;-58
2024/02/27 16:58:39;;;;;;;24.25;14.05;;;7.80;99.90;;;;;;6269037;22;20019;-59
2024/02/27 17:01:26;;;;;;;28.77;15.30;;;7.80;99.90;;;;;;6271254;22;20010;-59
2024/02/27 17:04:12;;;;;;;22.98;14.68;;;7.80;99.90;;;;;;6268330;22;20008;-59
2024/02/27 17:06:58;;;;;;;27.52;14.93;;;7.90;99.90;;;;;;6272608;22;20022;-60
2024/02/27 17:09:43;;;;;;;28.92;14.10;;;7.80;99.90;;;;;;6271555;22;20390;-60
2024/02/27 17:12:29;;;;;;;22.67;14.15;;;7.80;99.90;;;;;;6274090;22;20087;-60
2024/02/27 17:15:18;;;;;;;26.00;13.32;;;7.70;99.90;;;;;;6268162;22;20451;-59
2024/02/27 17:18:04;;;;;;;25.38;13.82;;;7.70;99.90;;;;;;6270051;22;20060;-60
2024/02/27 17:20:53;;;;;;;23.42;14.82;;;7.70;99.90;;;;;;6271244;22;20447;-60
2024/02/27 17:23:39;;;;;;;26.85;14.45;;;7.70;99.90;;;;;;6271554;22;20473;-59
2024/02/27 17:26:25;;;;;;;23.05;15.05;;;7.70;99.90;;;;;;6269809;22;20325;-59
2024/02/27 17:29:11;;;;;;;23.58;14.20;;;7.70;99.90;;;;;;6270717;22;20015;-59
2024/02/27 17:31:56;;;;;;;26.40;15.18;;;7.70;99.90;;;;;;6249108;22;20007;-60
2024/02/27 17:34:42;;;;;;;23.55;14.77;;;7.70;99.90;;;;;;6271635;22;20073;-59
2024/02/27 17:37:28;;;;;;;24.52;14.95;;;7.70;99.90;;;;;;6272062;22;20336;-58
2024/02/27 17:40:15;;;;;;;24.23;13.90;;;7.70;99.90;;;;;;6269817;22;20069;-58
2024/02/27 17:43:01;;;;;;;24.95;13.38;;;7.70;99.90;;;;;;6269889;22;20012;-58
2024/02/27 17:45:49;;;;;;;24.25;14.77;;;7.70;99.90;;;;;;6273826;22;20026;-59
2024/02/27 17:48:35;;;;;;;31.92;16.92;;;7.70;99.90;;;;;;6269886;22;20494;-58
2024/02/27 17:51:21;;;;;;;26.98;15.10;;;7.70;99.90;;;;;;6273075;22;20018;-59
2024/02/27 17:54:07;;;;;;;25.92;15.95;;;7.60;99.90;;;;;;6249277;22;20024;-59
2024/02/27 17:56:53;;;;;;;22.63;14.60;;;7.60;99.90;;;;;;6269597;22;20008;-58
2024/02/27 17:59:39;;;;;;;25.50;14.85;;;7.60;99.90;;;;;;6269571;22;20004;-58
2024/02/27 18:02:25;;;;;;;27.58;15.48;;;7.60;99.90;;;;;;6269615;22;20016;-58
2024/02/27 18:05:11;;;;;;;25.52;14.05;;;7.60;99.90;;;;;;6271393;22;20079;-59
2024/02/27 18:07:57;;;;;;;25.67;15.15;;;7.60;99.90;;;;;;6271455;22;20015;-60
2024/02/27 18:10:43;;;;;;;29.90;14.75;;;7.70;99.90;;;;;;6270930;22;20069;-57
2024/02/27 18:13:29;;;;;;;27.00;15.60;;;7.70;99.90;;;;;;6248297;22;20015;-58
2024/02/27 18:16:15;;;;;;;24.95;14.48;;;7.70;99.90;;;;;;6269815;22;20482;-57
2024/02/27 18:19:02;;;;;;;26.33;15.15;;;7.60;99.90;;;;;;6270146;22;20003;-59
2024/02/27 18:21:48;;;;;;;27.80;14.95;;;7.60;99.90;;;;;;6270039;22;20053;-58
2024/02/27 18:24:34;;;;;;;26.40;14.73;;;7.60;99.90;;;;;;6272394;22;20015;-59
2024/02/27 18:27:21;;;;;;;24.08;14.18;;;7.60;99.90;;;;;;6249128;22;20016;-58
2024/02/27 18:30:09;;;;;;;24.45;13.63;;;7.50;99.90;;;;;;6271203;22;20008;-57
2024/02/27 18:32:55;;;;;;;27.75;14.75;;;7.50;99.90;;;;;;6269471;22;20108;-58
2024/02/27 18:35:44;;;;;;;30.08;16.90;;;7.40;99.90;;;;;;6268716;22;20004;-59
2024/02/27 18:38:30;;;;;;;30.92;17.25;;;7.40;99.90;;;;;;6270705;22;20091;-59
2024/02/27 18:41:16;;;;;;;27.27;16.33;;;7.40;99.90;;;;;;6271230;22;20022;-59
2024/02/27 18:44:02;;;;;;;27.58;15.60;;;7.40;99.90;;;;;;6267710;22;20018;-59
2024/02/27 18:46:48;;;;;;;31.60;15.40;;;7.40;99.90;;;;;;6269976;22;20020;-59
2024/02/27 18:49:34;;;;;;;28.42;16.60;;;7.40;99.90;;;;;;6246676;22;20015;-58
2024/02/27 18:52:20;;;;;;;25.85;14.90;;;7.40;99.90;;;;;;6271070;22;20146;-58
2024/02/27 18:55:06;;;;;;;26.17;15.13;;;7.40;99.90;;;;;;6247882;22;20478;-59
2024/02/27 18:57:52;;;;;;;30.58;16.02;;;7.40;99.90;;;;;;6269297;22;20602;-59
2024/02/27 19:00:38;;;;;;;26.35;15.93;;;7.30;99.90;;;;;;6269442;22;20337;-58
2024/02/27 19:03:24;;;;;;;27.42;15.25;;;7.40;99.90;;;;;;6269580;22;20011;-58
2024/02/27 19:06:10;;;;;;;30.05;15.77;;;7.40;99.90;;;;;;6269964;22;20086;-60
2024/02/27 19:08:56;;;;;;;24.73;15.18;;;7.30;99.90;;;;;;6270342;22;20015;-58
2024/02/27 19:11:41;;;;;;;34.15;17.63;;;7.30;99.90;;;;;;6270756;22;20340;-58
2024/02/27 19:14:28;;;;;;;30.25;15.70;;;7.40;99.90;;;;;;6269978;22;20014;-56
2024/02/27 19:17:14;;;;;;;26.02;15.77;;;7.40;99.90;;;;;;6272034;22;20027;-58
2024/02/27 19:20:00;;;;;;;26.52;15.48;;;7.50;99.90;;;;;;6270915;22;20531;-59
2024/02/27 19:22:46;;;;;;;27.70;15.75;;;7.50;99.90;;;;;;6249065;22;20436;-58
2024/02/27 19:25:35;;;;;;;25.63;15.40;;;7.50;99.90;;;;;;6268355;22;20018;-60
2024/02/27 19:28:21;;;;;;;21.58;14.20;;;7.50;99.90;;;;;;6271652;22;20094;-60
2024/02/27 19:31:08;;;;;;;23.52;14.45;;;7.50;99.90;;;;;;6270556;22;20003;-59
2024/02/27 19:33:54;;;;;;;26.50;15.70;;;7.60;99.90;;;;;;6272963;22;20015;-59
2024/02/27 19:36:40;;;;;;;27.70;15.13;;;7.60;99.90;;;;;;6270603;22;20012;-59
2024/02/27 19:39:26;;;;;;;28.05;15.65;;;7.60;99.90;;;;;;6267397;22;20016;-59
2024/02/27 19:42:12;;;;;;;26.92;17.23;;;7.60;99.90;;;;;;6269742;22;20495;-59
2024/02/27 19:44:58;;;;;;;25.15;15.05;;;7.60;99.90;;;;;;6268922;22;20018;-59
2024/02/27 19:47:44;;;;;;;25.38;17.13;;;7.60;99.90;;;;;;6269901;22;20094;-59
2024/02/27 19:50:30;;;;;;;28.90;16.25;;;7.60;99.90;;;;;;6268258;22;20015;-60
2024/02/27 19:53:16;;;;;;;25.08;15.77;;;7.60;99.90;;;;;;6270763;22;20031;-60
2024/02/27 19:56:02;;;;;;;25.42;15.75;;;7.60;99.90;;;;;;6269165;22;20038;-59
2024/02/27 19:58:48;;;;;;;31.98;15.90;;;7.60;99.90;;;;;;6269104;22;20333;-60
2024/02/27 20:01:35;;;;;;;26.95;15.70;;;7.60;99.90;;;;;;6270089;22;20011;-59
2024/02/27 20:04:21;;;;;;;25.95;15.32;;;7.60;99.90;;;;;;6268650;22;20014;-60
2024/02/27 20:07:07;;;;;;;29.35;16.40;;;7.60;99.90;;;;;;6268420;22;20470;-59
2024/02/27 20:09:53;;;;;;;27.55;15.48;;;7.50;99.90;;;;;;6271209;22;20000;-59
2024/02/27 20:12:42;;;;;;;27.45;16.02;;;7.50;99.90;;;;;;6270809;22;20012;-59
2024/02/27 20:15:28;;;;;;;27.33;14.88;;;7.50;99.90;;;;;;6269512;22;20004;-59
2024/02/27 20:18:14;;;;;;;31.45;17.80;;;7.40;99.90;;;;;;6268060;22;20042;-59
2024/02/27 20:21:03;;;;;;;22.92;14.75;;;7.40;99.90;;;;;;6269904;22;20078;-58
2024/02/27 20:23:49;;;;;;;26.35;14.95;;;7.40;99.90;;;;;;6270889;22;20015;-59
2024/02/27 20:26:41;;;;;;;27.98;16.27;;;7.40;99.90;;;;;;6270036;22;20024;-58
2024/02/27 20:29:27;;;;;;;25.30;15.70;;;7.40;99.90;;;;;;6269675;22;20003;-59
2024/02/27 20:32:13;;;;;;;25.70;15.85;;;7.30;99.90;;;;;;6270343;22;20008;-59
2024/02/27 20:34:59;;;;;;;29.27;17.83;;;7.30;99.90;;;;;;6271046;22;20004;-59
2024/02/27 20:37:44;;;;;;;27.50;16.58;;;7.30;99.90;;;;;;6269480;22;20011;-59
2024/02/27 20:40:30;;;;;;;26.63;14.07;;;7.20;99.90;;;;;;6272833;22;20550;-59
2024/02/27 20:43:16;;;;;;;25.67;14.43;;;7.30;99.90;;;;;;6273057;22;20466;-61
2024/02/27 20:46:02;;;;;;;27.55;15.57;;;7.30;99.90;;;;;;6248088;22;20069;-58
2024/02/27 20:48:49;;;;;;;24.27;14.80;;;7.30;99.90;;;;;;6270742;22;20008;-58
2024/02/27 20:51:35;;;;;;;29.35;15.57;;;7.30;99.90;;;;;;6272738;22;20463;-58
2024/02/27 20:54:21;;;;;;;28.48;16.23;;;7.30;99.90;;;;;;6272281;22;20066;-60
2024/02/27 20:57:06;;;;;;;23.10;14.60;;;7.20;99.90;;;;;;6273436;22;20012;-58
2024/02/27 20:59:52;;;;;;;32.60;17.85;;;7.20;99.90;;;;;;6270857;22;20003;-58
2024/02/27 21:02:38;;;;;;;26.23;15.77;;;7.20;99.90;;;;;;6270615;22;20119;-57
2024/02/27 21:05:24;;;;;;;24.20;14.73;;;7.20;99.90;;;;;;6271128;22;20132;-56
2024/02/27 21:08:10;;;;;;;25.10;16.38;;;7.20;99.90;;;;;;6272322;22;20106;-57
2024/02/27 21:10:57;;;;;;;27.13;16.33;;;7.20;99.90;;;;;;6270136;22;20012;-58
2024/02/27 21:13:43;;;;;;;27.73;17.33;;;7.20;99.90;;;;;;6273777;22;20329;-57
2024/02/27 21:16:29;;;;;;;28.58;16.85;;;7.20;99.90;;;;;;6271717;22;20374;-58
2024/02/27 21:19:15;;;;;;;27.52;16.48;;;7.20;99.90;;;;;;6270046;22;20007;-58
2024/02/27 21:22:01;;;;;;;26.80;15.98;;;7.20;99.90;;;;;;6273791;22;20043;-58
2024/02/27 21:24:47;;;;;;;26.35;15.18;;;7.20;99.90;;;;;;6273707;22;20008;-58
2024/02/27 21:27:33;;;;;;;25.67;15.30;;;7.20;99.90;;;;;;6250618;22;20016;-56
2024/02/27 21:30:21;;;;;;;28.15;14.55;;;7.20;99.90;;;;;;6272218;22;20352;-56
2024/02/27 21:33:09;;;;;;;25.58;15.45;;;7.20;99.90;;;;;;6273090;22;20069;-57
2024/02/27 21:35:55;;;;;;;20.48;12.93;;;7.20;99.90;;;;;;6249210;22;20022;-58
2024/02/27 21:38:41;;;;;;;20.30;12.80;;;7.20;99.90;;;;;;6270679;22;20012;-57
2024/02/27 21:41:27;;;;;;;21.48;12.73;;;7.10;99.90;;;;;;6271891;22;20007;-57
2024/02/27 21:44:13;;;;;;;22.00;13.68;;;7.10;99.90;;;;;;6273199;22;20015;-57
2024/02/27 21:46:59;;;;;;;19.48;12.35;;;7.20;99.90;;;;;;6272216;22;20290;-55
2024/02/27 21:49:45;;;;;;;25.08;14.30;;;7.20;99.90;;;;;;6271428;22;20008;-59
2024/02/27 21:52:30;;;;;;;20.27;11.75;;;7.10;99.90;;;;;;6270466;22;20436;-58
2024/02/27 21:55:17;;;;;;;22.67;13.25;;;7.10;99.90;;;;;;6271781;22;20051;-58
2024/02/27 21:58:03;;;;;;;19.20;11.90;;;7.00;99.90;;;;;;6272382;22;20007;-57
2024/02/27 22:00:50;;;;;;;19.75;12.15;;;7.00;99.90;;;;;;6272201;22;20012;-59
2024/02/27 22:03:36;;;;;;;19.48;13.82;;;7.00;99.90;;;;;;6273233;22;20018;-58
2024/02/27 22:06:22;;;;;;;19.60;11.27;;;6.90;99.90;;;;;;6270142;22;20011;-57
2024/02/27 22:09:09;;;;;;;17.85;10.68;;;7.00;99.90;;;;;;6268584;22;20081;-58
2024/02/27 22:11:55;;;;;;;17.75;11.75;;;7.00;99.90;;;;;;6268212;22;20065;-61
2024/02/27 22:14:41;;;;;;;18.98;11.30;;;6.90;99.90;;;;;;6271470;22;20012;-62
2024/02/27 22:17:27;;;;;;;23.58;13.20;;;6.90;99.90;;;;;;6271520;22;20014;-62
2024/02/27 22:20:14;;;;;;;20.20;11.93;;;6.90;99.90;;;;;;6270675;22;20019;-62
2024/02/27 22:23:00;;;;;;;20.13;11.20;;;6.90;99.90;;;;;;6271677;22;20039;-61
2024/02/27 22:25:46;;;;;;;21.30;11.57;;;7.00;99.90;;;;;;6270163;22;20352;-62
2024/02/27 22:28:31;;;;;;;19.25;11.00;;;7.00;99.90;;;;;;6271254;22;20054;-63
2024/02/27 22:31:17;;;;;;;21.40;12.02;;;7.00;99.90;;;;;;6270542;22;20011;-61
2024/02/27 22:34:03;;;;;;;21.13;12.27;;;7.00;99.90;;;;;;6249050;22;20016;-62
2024/02/27 22:36:49;;;;;;;20.38;11.93;;;7.00;99.90;;;;;;6270754;22;20313;-61
2024/02/27 22:39:35;;;;;;;19.20;11.35;;;7.10;99.90;;;;;;6269761;22;20062;-61
2024/02/27 22:42:21;;;;;;;22.10;11.77;;;7.00;99.90;;;;;;6268147;22;20070;-61
2024/02/27 22:45:07;;;;;;;20.08;11.93;;;7.00;99.90;;;;;;6248233;22;20428;-61
2024/02/27 22:47:53;;;;;;;22.00;12.55;;;7.00;99.90;;;;;;6270759;22;20107;-61
2024/02/27 22:50:40;;;;;;;19.38;11.80;;;7.00;99.90;;;;;;6271396;22;20007;-61
2024/02/27 22:53:26;;;;;;;22.33;12.57;;;7.00;99.90;;;;;;6271642;22;20028;-61
2024/02/27 22:56:12;;;;;;;21.35;11.77;;;7.00;99.90;;;;;;6270461;22;20088;-62
2024/02/27 22:58:58;;;;;;;19.45;12.13;;;7.10;99.90;;;;;;6270532;22;20091;-61
2024/02/27 23:01:44;;;;;;;18.95;11.63;;;7.10;99.90;;;;;;6270248;22;20019;-61
2024/02/27 23:04:29;;;;;;;18.80;12.05;;;7.10;99.90;;;;;;6271119;22;20395;-61
2024/02/27 23:07:15;;;;;;;20.85;11.90;;;7.00;99.90;;;;;;6271348;22;20277;-62
2024/02/27 23:10:01;;;;;;;20.25;12.07;;;7.00;99.90;;;;;;6270754;22;20000;-62
2024/02/27 23:12:49;;;;;;;23.33;12.35;;;7.00;99.90;;;;;;6270761;22;20065;-62
2024/02/27 23:15:35;;;;;;;19.23;11.55;;;7.00;99.90;;;;;;6268587;22;20014;-62
2024/02/27 23:18:21;;;;;;;19.88;11.45;;;7.00;99.90;;;;;;6270160;22;20007;-62
2024/02/27 23:21:07;;;;;;;20.20;11.80;;;7.00;99.90;;;;;;6273409;22;20069;-62
2024/02/27 23:23:53;;;;;;;23.13;12.88;;;7.00;99.90;;;;;;6271512;22;20035;-62
2024/02/27 23:26:39;;;;;;;22.52;12.52;;;7.00;99.90;;;;;;6272192;22;20014;-61
2024/02/27 23:29:28;;;;;;;16.23;10.30;;;7.00;99.90;;;;;;6270499;22;20008;-61
2024/02/27 23:32:14;;;;;;;20.20;11.10;;;6.90;99.90;;;;;;6270389;22;20050;-61
2024/02/27 23:35:01;;;;;;;23.13;12.65;;;6.90;99.90;;;;;;6268092;22;20012;-61
2024/02/27 23:37:47;;;;;;;21.13;12.43;;;6.90;99.90;;;;;;6272551;22;20435;-62
2024/02/27 23:40:33;;;;;;;19.20;11.38;;;6.80;99.90;;;;;;6269792;22;20066;-62
2024/02/27 23:43:20;;;;;;;20.85;11.35;;;6.80;99.90;;;;;;6269674;22;20387;-62
2024/02/27 23:46:10;;;;;;;17.42;10.75;;;6.80;99.90;;;;;;6248312;22;20015;-62
2024/02/27 23:48:57;;;;;;;22.80;13.48;;;6.80;99.90;;;;;;6267807;22;20019;-62
2024/02/27 23:51:43;;;;;;;19.65;11.45;;;6.80;99.90;;;;;;6263735;22;20008;-62
2024/02/27 23:54:29;;;;;;;19.85;12.48;;;6.80;99.90;;;;;;6269609;22;20377;-62
2024/02/27 23:57:15;;;;;;;19.73;12.32;;;6.80;99.90;;;;;;6270592;22;20003;-61
